Terminal Aerodrome Forecast
Issued by NWS Omaha/Valley, NE

Home | Current Version | Previous Version | Text Only | Print | Product List | Glossary On
Versions: 1 2 3 4 5 6 7 8 9 10 11 12 13 14 15 16 17 18 19 20 21 22 23 24 25 26 27
000
FTUS43 KOAX 021120
TAFLNK
TAF
KLNK 021120Z 0212/0312 12004KT P6SM BKN120
     FM021500 14008KT P6SM BKN080
     FM021800 16015G25KT P6SM BKN080
     FM030300 17015KT 6SM BR OVC015 PROB30 0306/0312 4SM -FZRADZ BR
      OVC010=

USA.gov is the U.S. government's official web portal to all federal, state and local government web resources and services.